Time;durP1;ratioP1;P1;durP2;ratioP2;P2;SDS_P1;SDS_P2;PMS_P1;PMS_P2;Temp;Humidity;BMP_temperature;BMP_pressure;BME280_temperature;BME280_humidity;BME280_pressure;Samples;Min_cycle;Max_cycle;Signal;HPM_P1;HPM_P2
2021/04/23 00:01:17;;;;;;;15.50;12.80;;;10.50;99.90;;;;;;6249140;28;20954;-59
2021/04/23 00:04:20;;;;;;;14.30;13.00;;;10.50;99.90;;;;;;6249544;28;20978;-59
2021/04/23 00:07:22;;;;;;;15.13;12.97;;;10.40;99.90;;;;;;6248532;28;20782;-60
2021/04/23 00:10:27;;;;;;;15.20;13.80;;;10.40;99.90;;;;;;6249648;28;20471;-60
2021/04/23 00:13:29;;;;;;;15.63;13.80;;;10.40;99.90;;;;;;6251041;28;20556;-58
2021/04/23 00:16:31;;;;;;;14.77;12.70;;;10.40;99.90;;;;;;6251756;28;20467;-58
2021/04/23 00:19:37;;;;;;;12.73;11.47;;;10.30;99.90;;;;;;6251280;28;20633;-59
2021/04/23 00:22:40;;;;;;;15.63;13.90;;;10.30;99.90;;;;;;6251616;28;20470;-59
2021/04/23 00:25:42;;;;;;;14.67;13.17;;;10.30;99.90;;;;;;6251161;28;20808;-59
2021/04/23 00:28:45;;;;;;;16.77;15.03;;;10.40;99.90;;;;;;6241815;28;20815;-59
2021/04/23 00:35:13;;;;;;;17.10;14.00;;;10.50;99.90;;;;;;6250886;28;20547;-59
2021/04/23 00:38:17;;;;;;;15.60;13.93;;;10.60;99.90;;;;;;6251141;28;20482;-59
2021/04/23 00:41:24;;;;;;;13.77;12.37;;;10.60;99.90;;;;;;6251123;28;20486;-59
2021/04/23 00:44:26;;;;;;;18.70;16.70;;;10.60;99.90;;;;;;6251103;28;20819;-59
2021/04/23 00:47:28;;;;;;;15.57;14.07;;;10.60;99.90;;;;;;6250691;28;20497;-59
2021/04/23 00:50:37;;;;;;;18.23;16.30;;;10.60;99.90;;;;;;6250940;28;20545;-59
2021/04/23 00:53:47;;;;;;;17.23;15.53;;;10.50;99.90;;;;;;6250330;28;20476;-64
2021/04/23 00:56:49;;;;;;;14.63;13.10;;;10.30;99.90;;;;;;6250555;28;20971;-64
2021/04/23 00:59:52;;;;;;;14.87;13.27;;;10.30;99.90;;;;;;6250182;28;20817;-63
2021/04/23 01:02:54;;;;;;;15.83;14.23;;;10.20;99.90;;;;;;6250555;28;20483;-64
2021/04/23 01:05:58;;;;;;;14.63;13.07;;;10.10;99.90;;;;;;6250341;28;20485;-65
2021/04/23 01:09:06;;;;;;;17.27;13.40;;;10.10;99.90;;;;;;6250194;28;20842;-64
2021/04/23 01:12:10;;;;;;;14.47;12.93;;;10.10;99.90;;;;;;6250037;28;20970;-64
2021/04/23 01:15:13;;;;;;;16.00;14.37;;;10.00;99.90;;;;;;6250302;28;20479;-65
2021/04/23 01:18:15;;;;;;;14.97;13.47;;;9.80;99.90;;;;;;6249358;28;20483;-64
2021/04/23 01:21:21;;;;;;;16.10;14.03;;;9.90;99.90;;;;;;6250141;28;20468;-62
2021/04/23 01:24:24;;;;;;;16.07;14.47;;;9.80;99.90;;;;;;6249760;28;20475;-64
2021/04/23 01:27:27;;;;;;;15.07;13.30;;;9.80;99.90;;;;;;6249906;28;20474;-59
2021/04/23 01:30:30;;;;;;;15.70;13.53;;;9.80;99.90;;;;;;6249854;28;20786;-59
2021/04/23 01:33:33;;;;;;;13.70;12.33;;;9.80;99.90;;;;;;6245092;28;20478;-63
2021/04/23 01:36:36;;;;;;;15.20;13.33;;;9.80;99.90;;;;;;6250035;28;20821;-64
2021/04/23 01:39:41;;;;;;;19.13;14.87;;;9.70;99.90;;;;;;6249333;28;20978;-65
2021/04/23 01:42:44;;;;;;;15.10;13.60;;;9.60;99.90;;;;;;6249654;28;20485;-65
2021/04/23 01:45:47;;;;;;;16.10;14.00;;;9.60;99.90;;;;;;6249290;28;20554;-64
2021/04/23 01:48:50;;;;;;;15.40;13.90;;;9.50;99.90;;;;;;6249598;28;20779;-65
2021/04/23 01:51:57;;;;;;;14.70;13.30;;;9.50;99.90;;;;;;6249284;28;21005;-65
2021/04/23 01:54:59;;;;;;;15.60;12.90;;;9.50;99.90;;;;;;6249635;28;20463;-64
2021/04/23 01:58:02;;;;;;;16.50;12.53;;;9.50;99.90;;;;;;6249195;28;21085;-64
2021/04/23 02:01:06;;;;;;;14.83;13.33;;;9.40;99.90;;;;;;6249079;28;20991;-64
2021/04/23 02:04:10;;;;;;;14.00;12.63;;;9.40;99.90;;;;;;6249014;28;20474;-65
2021/04/23 02:07:14;;;;;;;12.90;11.60;;;9.40;99.90;;;;;;6249458;28;20466;-65
2021/04/23 02:10:19;;;;;;;15.97;12.97;;;9.30;99.90;;;;;;6249462;28;20459;-64
2021/04/23 02:13:24;;;;;;;14.83;12.23;;;9.20;99.90;;;;;;6249605;28;20474;-65
2021/04/23 02:16:26;;;;;;;13.57;12.17;;;9.30;99.90;;;;;;6249592;28;20477;-65
2021/04/23 02:19:46;;;;;;;13.13;11.83;;;9.20;99.90;;;;;;6249572;28;20463;-65
2021/04/23 02:22:50;;;;;;;14.27;12.43;;;9.10;99.90;;;;;;6249172;28;20498;-63
2021/04/23 02:25:53;;;;;;;12.43;11.13;;;9.00;99.90;;;;;;6248959;28;20789;-63
2021/04/23 02:28:56;;;;;;;14.17;12.80;;;9.00;99.90;;;;;;6249063;28;20471;-63
2021/04/23 02:31:58;;;;;;;13.90;12.47;;;9.00;99.90;;;;;;6253545;28;20471;-63
2021/04/23 02:35:00;;;;;;;16.27;12.93;;;8.90;99.90;;;;;;6253967;28;20481;-63
2021/04/23 02:38:04;;;;;;;14.53;13.20;;;8.90;99.90;;;;;;6249328;28;20489;-63
2021/04/23 02:41:06;;;;;;;14.60;13.10;;;8.80;99.90;;;;;;6253717;28;20475;-63
2021/04/23 02:44:09;;;;;;;16.10;14.50;;;8.80;99.90;;;;;;6253452;28;20471;-63
2021/04/23 02:47:11;;;;;;;14.30;12.63;;;8.80;99.90;;;;;;6253793;28;20474;-63
2021/04/23 02:50:17;;;;;;;16.57;12.93;;;8.70;99.90;;;;;;6253268;28;20474;-63
2021/04/23 02:53:21;;;;;;;14.13;12.63;;;8.70;99.90;;;;;;6253505;28;20489;-63
2021/04/23 02:56:24;;;;;;;14.03;12.63;;;8.70;99.90;;;;;;6253258;28;20478;-63
2021/04/23 02:59:27;;;;;;;15.30;13.20;;;8.60;99.90;;;;;;6252985;28;20892;-63
2021/04/23 03:02:29;;;;;;;15.23;13.63;;;8.60;99.90;;;;;;6253537;28;20466;-63
2021/04/23 03:05:32;;;;;;;18.53;14.77;;;8.60;99.90;;;;;;6253353;28;20475;-63
2021/04/23 03:08:36;;;;;;;14.23;12.80;;;8.60;99.90;;;;;;6253403;28;20481;-63
2021/04/23 03:11:40;;;;;;;14.20;12.70;;;8.60;99.90;;;;;;6252712;28;20471;-63
2021/04/23 03:14:42;;;;;;;14.90;13.40;;;8.60;99.90;;;;;;6253031;28;20477;-64
2021/04/23 03:17:44;;;;;;;14.10;12.60;;;8.60;99.90;;;;;;6252952;28;20473;-63
2021/04/23 03:20:48;;;;;;;13.20;11.27;;;8.50;99.90;;;;;;6252891;28;20486;-63
2021/04/23 03:23:51;;;;;;;14.20;12.70;;;8.50;99.90;;;;;;6252559;28;20482;-64
2021/04/23 03:26:53;;;;;;;13.57;12.23;;;8.40;99.90;;;;;;6252574;28;20482;-64
2021/04/23 03:29:55;;;;;;;13.27;11.97;;;8.40;99.90;;;;;;6252430;28;20477;-63
2021/04/23 03:32:58;;;;;;;12.67;11.37;;;8.30;99.90;;;;;;6252712;28;20478;-64
2021/04/23 03:36:04;;;;;;;15.13;13.53;;;8.30;99.90;;;;;;6252629;28;20467;-63
2021/04/23 03:39:10;;;;;;;16.13;13.50;;;8.30;99.90;;;;;;6252368;28;20624;-63
2021/04/23 03:42:12;;;;;;;16.00;13.00;;;8.10;99.90;;;;;;6242312;28;20459;-63
2021/04/23 03:45:18;;;;;;;14.33;12.93;;;8.10;99.90;;;;;;6251973;28;20497;-64
2021/04/23 03:48:21;;;;;;;15.23;13.33;;;8.00;99.90;;;;;;6252236;28;20478;-63
2021/04/23 03:51:24;;;;;;;14.83;12.80;;;8.00;99.90;;;;;;6251933;28;20541;-63
2021/04/23 03:54:27;;;;;;;15.43;12.20;;;8.00;99.90;;;;;;6251794;28;20482;-63
2021/04/23 03:57:29;;;;;;;16.80;13.73;;;8.00;99.90;;;;;;6251543;28;20577;-64
2021/04/23 04:00:35;;;;;;;16.93;14.27;;;8.00;99.90;;;;;;6251765;28;20660;-63
2021/04/23 04:03:38;;;;;;;16.83;14.67;;;8.00;99.90;;;;;;6251609;28;20480;-63
2021/04/23 04:06:40;;;;;;;18.10;15.50;;;8.00;99.90;;;;;;6251824;28;20986;-63
2021/04/23 04:09:43;;;;;;;18.73;14.87;;;8.00;99.90;;;;;;6251027;28;20474;-63
2021/04/23 04:12:46;;;;;;;18.87;15.77;;;7.90;99.90;;;;;;6251437;28;20490;-63
2021/04/23 04:15:48;;;;;;;18.67;15.37;;;7.90;99.90;;;;;;6251267;28;20479;-64
2021/04/23 04:18:50;;;;;;;16.90;15.10;;;7.90;99.90;;;;;;6251462;28;20472;-64
2021/04/23 04:21:53;;;;;;;18.77;16.40;;;7.90;99.90;;;;;;6251287;28;20487;-63
2021/04/23 04:24:56;;;;;;;14.73;13.30;;;7.90;99.90;;;;;;6250882;28;20463;-62
2021/04/23 04:27:58;;;;;;;16.57;14.43;;;7.90;99.90;;;;;;6251550;28;20436;-63
2021/04/23 04:31:01;;;;;;;19.47;14.33;;;7.90;99.90;;;;;;6251169;28;20438;-63
2021/04/23 04:34:21;;;;;;;18.33;15.67;;;7.90;99.90;;;;;;6251446;28;20475;-62
2021/04/23 04:37:24;;;;;;;15.97;14.20;;;7.80;99.90;;;;;;6251276;28;20485;-63
2021/04/23 04:40:29;;;;;;;20.00;14.43;;;7.80;99.90;;;;;;6250740;28;20945;-63
2021/04/23 04:43:31;;;;;;;14.40;12.37;;;7.80;99.90;;;;;;6244678;28;20482;-65
2021/04/23 04:46:34;;;;;;;17.43;14.57;;;7.80;99.90;;;;;;6250868;28;20479;-63
2021/04/23 04:49:36;;;;;;;16.80;13.90;;;7.90;99.90;;;;;;6250249;28;20475;-62
2021/04/23 04:52:39;;;;;;;15.03;13.43;;;7.90;99.90;;;;;;6250317;28;20471;-63
2021/04/23 04:55:44;;;;;;;17.70;14.00;;;8.00;99.90;;;;;;6249751;28;20482;-63
2021/04/23 04:58:47;;;;;;;28.07;16.97;;;8.00;99.90;;;;;;6250704;28;20474;-64
2021/04/23 05:01:50;;;;;;;19.87;14.23;;;8.10;99.90;;;;;;6249973;28;20466;-64
2021/04/23 05:04:52;;;;;;;18.30;14.77;;;8.30;99.90;;;;;;6250757;28;20560;-64
2021/04/23 05:07:58;;;;;;;17.80;14.20;;;8.60;99.90;;;;;;6250318;28;20507;-59
2021/04/23 05:11:01;;;;;;;19.80;12.63;;;8.80;99.90;;;;;;6250064;28;20959;-65
2021/04/23 05:14:03;;;;;;;15.23;13.57;;;9.10;99.90;;;;;;6250251;28;20475;-65
2021/04/23 05:17:06;;;;;;;17.47;13.90;;;9.30;99.90;;;;;;6250100;28;20471;-65
2021/04/23 05:20:10;;;;;;;13.40;12.00;;;9.50;99.90;;;;;;6250303;28;20579;-60
2021/04/23 05:23:13;;;;;;;16.20;12.23;;;9.80;99.60;;;;;;6249639;28;20512;-59
2021/04/23 05:26:16;;;;;;;13.33;11.80;;;10.20;98.40;;;;;;6249974;28;20478;-60
2021/04/23 05:29:18;;;;;;;18.63;12.37;;;10.60;97.60;;;;;;6249713;28;20479;-60
2021/04/23 05:32:20;;;;;;;14.07;12.50;;;10.90;97.10;;;;;;6249728;28;20974;-61
2021/04/23 05:35:23;;;;;;;14.50;12.03;;;11.30;96.00;;;;;;6249538;28;20498;-60
2021/04/23 05:38:25;;;;;;;14.70;13.07;;;11.70;95.10;;;;;;6250143;28;20478;-60
2021/04/23 05:41:28;;;;;;;20.63;13.93;;;12.20;94.40;;;;;;6249301;28;20486;-60
2021/04/23 05:44:31;;;;;;;13.43;12.07;;;12.60;93.00;;;;;;6249701;28;20475;-65
2021/04/23 05:47:33;;;;;;;14.00;12.40;;;13.10;92.00;;;;;;6249527;28;20475;-59
2021/04/23 05:50:37;;;;;;;11.93;10.70;;;13.70;90.50;;;;;;6235576;28;20481;-59
2021/04/23 05:53:39;;;;;;;12.50;11.20;;;14.30;86.20;;;;;;6249676;28;20484;-66
2021/04/23 05:56:42;;;;;;;12.57;11.27;;;14.70;83.10;;;;;;6249450;28;20474;-66
2021/04/23 05:59:45;;;;;;;13.70;11.37;;;15.20;80.10;;;;;;6249603;28;20480;-66
2021/04/23 06:02:48;;;;;;;14.97;10.13;;;15.70;76.40;;;;;;6249054;28;20478;-61
2021/04/23 06:05:50;;;;;;;13.00;9.93;;;16.30;72.90;;;;;;6252947;28;20470;-63
2021/04/23 06:08:52;;;;;;;10.00;9.10;;;16.90;67.30;;;;;;6254341;28;20482;-64
2021/04/23 06:11:55;;;;;;;10.17;9.00;;;17.50;60.10;;;;;;6254513;28;20553;-66
2021/04/23 06:14:58;;;;;;;11.07;8.73;;;18.00;56.70;;;;;;6254302;28;20928;-64
2021/04/23 06:18:00;;;;;;;9.07;8.10;;;18.20;54.10;;;;;;6254730;28;20493;-64
2021/04/23 06:21:02;;;;;;;8.80;7.90;;;18.30;52.70;;;;;;6254185;28;20561;-58
2021/04/23 06:24:06;;;;;;;10.77;8.67;;;18.90;51.30;;;;;;6253915;28;20478;-66
2021/04/23 06:27:09;;;;;;;10.43;9.43;;;19.00;48.80;;;;;;6254044;28;20490;-64
2021/04/23 06:30:14;;;;;;;11.00;9.57;;;19.30;47.80;;;;;;6253726;28;20937;-60
2021/04/23 06:33:18;;;;;;;13.43;9.53;;;19.80;47.40;;;;;;6253770;28;20482;-60
2021/04/23 06:36:22;;;;;;;12.50;8.90;;;20.20;45.20;;;;;;6254024;28;20232;-61
2021/04/23 06:39:24;;;;;;;11.30;9.97;;;20.80;45.20;;;;;;6253712;28;20239;-61
2021/04/23 06:42:27;;;;;;;11.97;9.90;;;21.30;44.00;;;;;;6253104;28;20591;-60
2021/04/23 06:45:29;;;;;;;14.00;9.53;;;21.50;42.90;;;;;;6253555;28;20699;-60
2021/04/23 06:48:32;;;;;;;10.63;9.63;;;22.30;42.40;;;;;;6253349;28;20224;-60
2021/04/23 06:51:35;;;;;;;10.10;9.10;;;22.60;41.60;;;;;;6253839;28;20238;-61
2021/04/23 06:54:37;;;;;;;11.77;9.53;;;22.60;39.80;;;;;;6243905;28;20260;-61
2021/04/23 06:57:41;;;;;;;9.93;8.90;;;23.30;39.10;;;;;;6253657;28;20236;-60
2021/04/23 07:00:44;;;;;;;11.20;10.03;;;22.80;40.00;;;;;;6253137;28;20231;-60
2021/04/23 07:03:46;;;;;;;12.10;9.93;;;23.90;38.30;;;;;;6252689;28;20232;-60
2021/04/23 07:06:48;;;;;;;10.47;9.37;;;24.30;37.40;;;;;;6253547;28;20243;-59
2021/04/23 07:09:50;;;;;;;9.10;8.33;;;24.60;35.80;;;;;;6252524;28;20716;-60
2021/04/23 07:12:54;;;;;;;9.50;8.47;;;25.50;34.20;;;;;;6252510;28;20579;-60
2021/04/23 07:15:56;;;;;;;10.33;8.80;;;26.40;32.20;;;;;;6251276;28;20231;-61
2021/04/23 07:18:58;;;;;;;9.53;8.63;;;26.00;30.40;;;;;;6252454;28;20205;-61
2021/04/23 07:22:00;;;;;;;10.73;9.20;;;26.60;30.30;;;;;;6251949;28;20746;-61
2021/04/23 07:25:04;;;;;;;9.87;8.83;;;27.20;29.30;;;;;;6245929;28;20232;-61
2021/04/23 07:28:08;;;;;;;9.03;8.13;;;27.90;29.10;;;;;;6236303;28;20617;-61
2021/04/23 07:31:11;;;;;;;13.00;9.40;;;28.30;28.10;;;;;;6249830;28;20612;-61
2021/04/23 07:34:16;;;;;;;10.30;9.37;;;28.40;28.00;;;;;;6251974;28;20251;-61
2021/04/23 07:37:18;;;;;;;11.53;9.30;;;28.60;27.80;;;;;;6250075;28;20234;-61
2021/04/23 07:40:21;;;;;;;9.87;8.80;;;28.00;28.30;;;;;;6250519;28;20245;-61
2021/04/23 07:43:24;;;;;;;11.33;10.23;;;29.10;27.30;;;;;;6251284;28;20249;-61
2021/04/23 07:46:35;;;;;;;11.37;10.10;;;30.00;26.60;;;;;;6252024;28;20232;-60
2021/04/23 07:49:38;;;;;;;11.03;9.97;;;31.10;26.10;;;;;;6251797;28;20239;-62
2021/04/23 07:52:53;;;;;;;13.35;10.32;;;32.20;25.40;;;;;;6251691;28;20587;-61
2021/04/23 07:55:56;;;;;;;11.88;9.98;;;33.40;24.10;;;;;;6246557;28;20227;-61
2021/04/23 07:58:59;;;;;;;13.43;9.20;;;33.70;23.20;;;;;;6251499;28;20223;-61
2021/04/23 08:02:02;;;;;;;11.07;9.25;;;34.50;22.90;;;;;;6251197;28;20231;-62
2021/04/23 08:05:07;;;;;;;10.93;9.45;;;34.90;22.70;;;;;;6251495;28;20585;-61
2021/04/23 08:08:29;;;;;;;12.57;10.23;;;35.80;22.00;;;;;;6250973;28;20692;-61
2021/04/23 08:11:32;;;;;;;11.15;9.98;;;36.20;21.30;;;;;;6250199;28;20227;-60
2021/04/23 08:14:35;;;;;;;11.75;10.70;;;35.40;21.40;;;;;;6251470;28;20275;-62
2021/04/23 08:17:42;;;;;;;11.52;10.43;;;35.50;21.40;;;;;;6251536;28;20277;-65
2021/04/23 08:20:44;;;;;;;11.55;10.65;;;35.00;21.60;;;;;;6250581;28;20243;-61
2021/04/23 08:23:47;;;;;;;10.63;9.57;;;34.70;22.00;;;;;;6250834;28;20242;-62
2021/04/23 08:26:50;;;;;;;10.48;9.57;;;34.60;22.00;;;;;;6251344;28;20227;-61
2021/04/23 08:29:54;;;;;;;11.30;9.48;;;35.70;21.50;;;;;;6250903;28;20238;-61
2021/04/23 08:32:57;;;;;;;10.55;9.65;;;34.60;21.80;;;;;;6250935;28;20310;-59
2021/04/23 08:36:00;;;;;;;13.65;10.10;;;35.60;21.40;;;;;;6250640;28;20310;-59
2021/04/23 08:39:04;;;;;;;11.48;10.48;;;35.60;21.10;;;;;;6250920;28;20228;-58
2021/04/23 08:42:07;;;;;;;9.80;8.93;;;36.20;20.50;;;;;;6250403;28;20231;-59
2021/04/23 08:45:13;;;;;;;10.88;9.95;;;37.40;19.60;;;;;;6250423;28;20321;-59
2021/04/23 08:48:17;;;;;;;11.20;10.20;;;38.40;18.90;;;;;;6250028;28;20231;-61
2021/04/23 08:51:21;;;;;;;11.32;10.35;;;38.60;19.20;;;;;;6250910;28;20234;-60
2021/04/23 08:54:24;;;;;;;11.48;10.48;;;39.20;18.70;;;;;;6249720;28;20240;-60
2021/04/23 08:57:27;;;;;;;11.75;10.18;;;39.40;17.70;;;;;;6250738;28;20553;-60
2021/04/23 09:00:30;;;;;;;10.35;9.45;;;38.00;18.70;;;;;;6249230;28;20655;-61
2021/04/23 09:03:33;;;;;;;9.75;8.95;;;37.50;18.90;;;;;;6250252;28;20231;-60
2021/04/23 09:06:35;;;;;;;11.63;10.70;;;36.70;18.90;;;;;;6248065;28;20353;-60
2021/04/23 09:09:40;;;;;;;10.65;9.60;;;35.90;19.50;;;;;;6249362;28;20215;-60
2021/04/23 09:12:42;;;;;;;11.23;10.32;;;35.20;19.70;;;;;;6249858;28;20234;-60
2021/04/23 09:15:47;;;;;;;10.23;9.25;;;34.20;20.10;;;;;;6249440;28;20234;-60
2021/04/23 09:18:49;;;;;;;11.38;10.32;;;32.00;21.90;;;;;;6249816;28;20710;-60
2021/04/23 09:21:55;;;;;;;11.60;10.40;;;30.30;22.60;;;;;;6249608;28;20232;-60
2021/04/23 09:25:01;;;;;;;10.90;9.90;;;28.30;23.90;;;;;;6225056;28;20238;-63
2021/04/23 09:28:04;;;;;;;9.63;8.73;;;27.30;24.40;;;;;;6226841;28;20204;-60
2021/04/23 09:31:23;;;;;;;11.00;8.77;;;26.40;25.40;;;;;;6246811;28;20735;-61
2021/04/23 09:34:25;;;;;;;11.33;10.00;;;25.50;26.10;;;;;;6246421;28;20315;-60
2021/04/23 09:37:29;;;;;;;9.53;8.63;;;24.20;26.90;;;;;;6247196;28;20224;-61
2021/04/23 09:40:33;;;;;;;9.73;8.83;;;23.70;27.40;;;;;;6245261;28;20243;-62
2021/04/23 09:43:38;;;;;;;9.43;8.23;;;23.30;28.90;;;;;;6245815;28;20243;-63
2021/04/23 09:46:41;;;;;;;10.23;8.80;;;22.80;29.00;;;;;;6245605;28;20259;-62
2021/04/23 09:49:45;;;;;;;11.03;8.70;;;21.90;29.70;;;;;;6245795;28;20402;-62
2021/04/23 09:52:49;;;;;;;10.87;7.20;;;21.10;30.30;;;;;;6245704;28;20243;-62
2021/04/23 09:55:55;;;;;;;10.63;8.37;;;20.90;30.70;;;;;;6245775;28;20538;-62
2021/04/23 09:59:16;;;;;;;12.67;8.73;;;20.70;31.00;;;;;;6245976;28;20396;-61
2021/04/23 10:02:20;;;;;;;9.40;8.00;;;20.20;31.90;;;;;;6247452;28;20302;-61
2021/04/23 10:05:36;;;;;;;12.53;8.50;;;19.80;31.10;;;;;;6246920;28;20239;-61
2021/04/23 10:08:39;;;;;;;9.20;7.40;;;19.60;32.10;;;;;;6246517;28;20284;-61
2021/04/23 10:11:42;;;;;;;10.07;7.70;;;19.30;32.40;;;;;;6246761;28;20225;-61
2021/04/23 10:14:57;;;;;;;8.20;7.47;;;19.30;32.00;;;;;;6246720;28;20232;-61
2021/04/23 10:18:02;;;;;;;8.30;7.37;;;19.60;31.50;;;;;;6246818;28;20229;-61
2021/04/23 10:21:05;;;;;;;8.43;7.53;;;19.60;31.80;;;;;;6246017;28;20256;-62
2021/04/23 10:24:08;;;;;;;7.77;7.07;;;19.90;31.70;;;;;;6246615;28;20242;-62
2021/04/23 10:27:11;;;;;;;9.70;7.40;;;19.60;31.30;;;;;;6246526;28;20668;-61
2021/04/23 10:30:16;;;;;;;9.27;7.80;;;19.70;30.90;;;;;;6246569;28;20236;-62
2021/04/23 10:33:39;;;;;;;8.70;7.80;;;19.90;31.60;;;;;;6246509;28;20311;-62
2021/04/23 10:36:41;;;;;;;11.20;7.80;;;20.00;31.60;;;;;;6245736;28;20239;-62
2021/04/23 10:39:45;;;;;;;7.17;6.47;;;20.10;31.10;;;;;;6246151;28;20233;-62
2021/04/23 10:42:54;;;;;;;8.50;7.60;;;20.30;31.00;;;;;;6246328;28;20236;-62
2021/04/23 10:46:05;;;;;;;8.50;7.70;;;20.20;31.80;;;;;;6246695;28;20555;-62
2021/04/23 10:49:09;;;;;;;9.67;8.67;;;19.80;31.80;;;;;;6245373;28;20588;-61
2021/04/23 10:52:11;;;;;;;8.73;6.50;;;19.70;31.80;;;;;;6249815;28;20211;-61
2021/04/23 10:55:13;;;;;;;10.50;6.67;;;19.70;32.50;;;;;;6251279;28;20224;-62
2021/04/23 10:58:18;;;;;;;9.80;7.27;;;19.20;31.80;;;;;;6250759;28;20629;-62
2021/04/23 11:01:24;;;;;;;7.87;7.10;;;19.10;32.20;;;;;;6250894;28;20285;-62
2021/04/23 11:04:27;;;;;;;10.50;7.33;;;19.10;32.30;;;;;;6250642;28;20237;-62
2021/04/23 11:07:31;;;;;;;10.77;7.70;;;19.00;32.90;;;;;;6251051;28;20248;-62
2021/04/23 11:11:17;;;;;;;8.80;7.33;;;18.80;33.60;;;;;;6250359;28;20539;-62
2021/04/23 11:14:22;;;;;;;6.87;6.17;;;19.20;32.50;;;;;;6225819;28;20475;-61
2021/04/23 11:17:34;;;;;;;7.23;6.17;;;19.50;32.30;;;;;;6226353;28;20327;-62
2021/04/23 11:20:39;;;;;;;7.33;6.60;;;19.90;31.40;;;;;;6225879;28;20233;-62
2021/04/23 11:24:09;;;;;;;9.23;7.63;;;20.10;30.60;;;;;;6226019;28;20241;-62
2021/04/23 11:27:12;;;;;;;10.30;8.27;;;20.20;31.30;;;;;;6236452;28;20239;-62
2021/04/23 11:30:15;;;;;;;9.83;7.17;;;20.40;30.10;;;;;;6250076;28;20228;-61
2021/04/23 11:33:48;;;;;;;7.10;6.40;;;20.20;30.20;;;;;;6249766;28;20307;-60
2021/04/23 11:37:01;;;;;;;9.23;7.57;;;20.20;30.50;;;;;;6249314;28;20526;-61
2021/04/23 11:40:17;;;;;;;10.30;6.27;;;20.20;30.50;;;;;;6250008;28;20221;-60
2021/04/23 11:43:37;;;;;;;7.47;6.27;;;20.40;30.10;;;;;;6249808;28;20251;-61
2021/04/23 11:46:54;;;;;;;7.20;5.53;;;20.40;29.90;;;;;;6247452;28;20743;-58
2021/04/23 11:50:10;;;;;;;6.30;5.70;;;20.40;29.70;;;;;;6247409;28;20221;-58
2021/04/23 11:53:15;;;;;;;11.80;7.30;;;20.50;29.70;;;;;;6247719;28;20231;-59
2021/04/23 11:56:17;;;;;;;11.23;6.20;;;20.70;29.40;;;;;;6249901;28;20224;-59
2021/04/23 11:59:19;;;;;;;9.07;6.40;;;20.70;29.10;;;;;;6251526;28;20231;-58
2021/04/23 12:02:41;;;;;;;6.23;5.57;;;20.40;28.90;;;;;;6250460;28;20574;-63
2021/04/23 12:05:46;;;;;;;7.27;6.40;;;20.50;29.30;;;;;;6251841;28;20378;-59
2021/04/23 12:08:49;;;;;;;6.93;5.53;;;20.70;28.80;;;;;;6242350;28;20323;-59
2021/04/23 12:12:03;;;;;;;7.90;5.00;;;20.80;28.00;;;;;;6251579;28;20243;-59
2021/04/23 12:15:07;;;;;;;6.33;5.00;;;20.70;28.40;;;;;;6251094;28;20680;-59
2021/04/23 12:18:10;;;;;;;7.47;5.10;;;20.70;28.10;;;;;;6251409;28;20228;-59
2021/04/23 12:21:14;;;;;;;9.40;5.40;;;20.90;27.80;;;;;;6250847;28;20228;-59
2021/04/23 12:24:23;;;;;;;7.50;4.70;;;21.10;27.40;;;;;;6250915;28;20697;-59
2021/04/23 12:27:26;;;;;;;6.40;4.60;;;21.00;27.10;;;;;;6250737;28;20570;-59
2021/04/23 12:30:30;;;;;;;6.87;4.63;;;20.90;27.30;;;;;;6250866;28;20314;-59
2021/04/23 12:33:45;;;;;;;7.33;5.33;;;21.00;27.90;;;;;;6249799;28;20236;-58
2021/04/23 12:36:49;;;;;;;7.27;4.40;;;21.00;27.80;;;;;;6250792;28;20567;-59
2021/04/23 12:39:52;;;;;;;6.43;4.70;;;21.10;27.60;;;;;;6250617;28;20331;-59
2021/04/23 12:42:56;;;;;;;5.53;4.57;;;21.10;27.10;;;;;;6250407;28;20228;-59
2021/04/23 12:45:58;;;;;;;8.80;5.27;;;21.20;27.40;;;;;;6250171;28;20226;-59
2021/04/23 12:49:09;;;;;;;7.27;5.63;;;21.10;26.50;;;;;;6250050;28;20231;-59
2021/04/23 12:52:17;;;;;;;5.20;4.47;;;21.10;26.60;;;;;;6250059;28;20529;-61
2021/04/23 12:55:20;;;;;;;7.37;6.37;;;21.20;26.90;;;;;;6250324;28;20258;-58
2021/04/23 12:58:23;;;;;;;7.90;4.93;;;21.50;27.70;;;;;;6250001;28;20228;-58
2021/04/23 13:01:25;;;;;;;5.70;4.70;;;21.40;26.70;;;;;;6250083;28;20400;-62
2021/04/23 13:04:30;;;;;;;5.33;4.80;;;21.20;26.60;;;;;;6250215;28;20244;-62
2021/04/23 13:07:34;;;;;;;7.30;5.17;;;21.20;26.80;;;;;;6248687;28;20230;-63
2021/04/23 13:10:42;;;;;;;5.10;4.60;;;21.40;26.30;;;;;;6245525;28;20224;-63
2021/04/23 13:13:44;;;;;;;8.47;5.40;;;21.10;26.30;;;;;;6270890;28;20242;-62
2021/04/23 13:16:56;;;;;;;4.33;3.93;;;20.90;25.90;;;;;;6249753;28;20561;-59
2021/04/23 13:19:58;;;;;;;4.97;4.00;;;20.90;26.40;;;;;;6249255;28;20224;-62
2021/04/23 13:23:02;;;;;;;6.67;4.87;;;20.90;26.30;;;;;;6249260;28;20570;-62
2021/04/23 13:26:06;;;;;;;10.00;4.50;;;20.80;26.20;;;;;;6249647;28;20247;-62
2021/04/23 13:29:10;;;;;;;6.10;4.20;;;20.80;26.50;;;;;;6249942;28;20221;-62
2021/04/23 13:32:12;;;;;;;5.33;3.43;;;20.90;26.40;;;;;;6249519;28;20569;-61
2021/04/23 13:35:26;;;;;;;7.63;3.93;;;20.90;26.20;;;;;;6249353;28;20579;-62
2021/04/23 13:38:31;;;;;;;5.50;4.20;;;20.70;25.80;;;;;;6249217;28;20244;-62
2021/04/23 13:41:38;;;;;;;5.60;4.10;;;20.60;25.70;;;;;;6249491;28;20235;-62
2021/04/23 13:44:41;;;;;;;6.47;3.70;;;20.60;25.70;;;;;;6249405;28;20617;-62
2021/04/23 13:47:44;;;;;;;5.17;4.07;;;20.30;25.10;;;;;;6249776;28;20235;-62
2021/04/23 13:50:46;;;;;;;6.50;3.47;;;20.10;25.40;;;;;;6249463;28;20236;-62
2021/04/23 13:53:49;;;;;;;5.20;3.30;;;20.30;25.90;;;;;;6248709;28;20238;-62
2021/04/23 13:56:54;;;;;;;6.13;3.70;;;20.50;25.00;;;;;;6248306;28;20220;-62
2021/04/23 13:59:56;;;;;;;3.13;2.40;;;20.60;25.10;;;;;;6248331;28;20236;-63
2021/04/23 14:02:59;;;;;;;3.67;3.17;;;20.60;24.30;;;;;;6248427;28;20227;-62
2021/04/23 14:06:02;;;;;;;7.63;3.60;;;20.50;24.70;;;;;;6248880;28;20287;-61
2021/04/23 14:09:06;;;;;;;2.73;2.30;;;20.50;24.30;;;;;;6248999;28;20243;-63
2021/04/23 14:12:12;;;;;;;4.13;2.30;;;20.50;24.10;;;;;;6248543;28;20310;-64
2021/04/23 14:15:14;;;;;;;3.27;2.50;;;20.50;24.50;;;;;;6242722;28;20232;-60
2021/04/23 14:18:17;;;;;;;3.47;2.30;;;20.70;24.00;;;;;;6245787;28;20307;-61
2021/04/23 14:21:19;;;;;;;4.40;2.00;;;20.70;23.20;;;;;;6247812;28;20239;-61
2021/04/23 14:24:22;;;;;;;4.27;2.60;;;20.80;23.80;;;;;;6248130;28;20263;-62
2021/04/23 14:27:25;;;;;;;3.17;2.97;;;20.90;24.60;;;;;;6252299;28;20228;-63
2021/04/23 14:30:27;;;;;;;4.53;2.60;;;20.90;24.60;;;;;;6253650;28;20232;-63
2021/04/23 14:33:29;;;;;;;3.87;3.30;;;20.70;24.60;;;;;;6253205;28;20224;-63
2021/04/23 14:36:32;;;;;;;4.93;3.03;;;20.50;25.30;;;;;;6252704;28;20788;-63
2021/04/23 14:39:34;;;;;;;4.90;4.23;;;20.40;25.10;;;;;;6252845;28;20224;-61
2021/04/23 14:42:37;;;;;;;2.90;2.63;;;20.40;25.60;;;;;;6250330;28;20231;-59
2021/04/23 14:45:40;;;;;;;2.47;2.27;;;20.20;25.00;;;;;;6252779;28;20243;-61
2021/04/23 14:48:42;;;;;;;5.87;3.20;;;20.10;24.80;;;;;;6253404;28;20239;-61
2021/04/23 14:51:45;;;;;;;6.90;4.60;;;20.30;25.50;;;;;;6252940;28;20366;-61
2021/04/23 14:54:47;;;;;;;7.43;3.53;;;20.50;28.10;;;;;;6252803;28;20255;-60
2021/04/23 14:57:50;;;;;;;20.03;4.27;;;20.80;27.80;;;;;;6252968;28;20369;-63
2021/04/23 15:00:53;;;;;;;3.17;2.30;;;20.90;24.40;;;;;;6252501;28;20232;-63
2021/04/23 15:03:56;;;;;;;3.77;2.00;;;21.00;22.90;;;;;;6252552;28;20692;-60
2021/04/23 15:06:58;;;;;;;5.43;2.90;;;21.10;22.10;;;;;;6251114;28;20672;-62
2021/04/23 15:10:04;;;;;;;7.83;3.47;;;21.10;22.20;;;;;;6251122;28;20216;-61
2021/04/23 15:13:08;;;;;;;7.33;4.17;;;21.20;23.20;;;;;;6252341;28;20227;-61
2021/04/23 15:16:11;;;;;;;6.60;5.13;;;21.00;27.10;;;;;;6252672;28;20196;-61
2021/04/23 15:19:13;;;;;;;6.40;4.97;;;20.60;28.10;;;;;;6247943;28;20215;-62
2021/04/23 15:22:15;;;;;;;4.80;4.40;;;20.20;28.50;;;;;;6252041;28;20232;-61
2021/04/23 15:25:18;;;;;;;6.80;5.20;;;19.90;28.90;;;;;;6251899;28;20560;-60
2021/04/23 15:28:23;;;;;;;6.97;4.73;;;19.80;29.30;;;;;;6251936;28;20318;-61
2021/04/23 15:31:28;;;;;;;8.53;5.10;;;19.70;29.50;;;;;;6248869;28;20224;-62
2021/04/23 15:34:30;;;;;;;5.70;5.00;;;19.70;29.50;;;;;;6249178;28;20312;-64
2021/04/23 15:37:32;;;;;;;8.70;5.00;;;19.70;29.50;;;;;;6246995;28;20223;-63
2021/04/23 15:40:36;;;;;;;8.30;4.40;;;19.50;29.80;;;;;;6248265;28;20236;-62
2021/04/23 15:43:39;;;;;;;5.60;4.90;;;19.10;30.40;;;;;;6247777;28;20240;-64
2021/04/23 15:46:44;;;;;;;7.97;5.30;;;19.20;30.80;;;;;;6249448;28;20232;-63
2021/04/23 15:49:47;;;;;;;7.50;4.77;;;19.20;30.50;;;;;;6248969;28;20220;-63
2021/04/23 15:52:50;;;;;;;6.83;6.20;;;19.30;30.90;;;;;;6251413;28;20325;-64